Time;durP1;ratioP1;P1;durP2;ratioP2;P2;SDS_P1;SDS_P2;PMS_P1;PMS_P2;Temp;Humidity;BMP_temperature;BMP_pressure;BME280_temperature;BME280_humidity;BME280_pressure;Samples;Min_cycle;Max_cycle;Signal;HPM_P1;HPM_P2
2021/10/06 00:01:12;;;;;;;6.30;2.50;;;11.30;99.90;;;;;;4988659;28;20404;-67
2021/10/06 00:03:38;;;;;;;3.30;2.50;;;11.30;99.90;;;;;;4988760;28;20109;-68
2021/10/06 00:06:04;;;;;;;3.45;2.60;;;11.30;99.90;;;;;;4988868;28;20031;-68
2021/10/06 00:08:29;;;;;;;5.32;2.75;;;11.30;99.90;;;;;;4988467;28;20038;-68
2021/10/06 00:10:55;;;;;;;8.45;2.65;;;11.30;99.90;;;;;;4988929;28;20054;-67
2021/10/06 00:13:21;;;;;;;6.53;2.53;;;11.30;99.90;;;;;;4988968;28;20060;-67
2021/10/06 00:15:47;;;;;;;5.13;2.72;;;11.30;99.90;;;;;;4988707;28;20031;-67
2021/10/06 00:18:15;;;;;;;8.52;2.60;;;11.20;99.90;;;;;;4988675;28;20031;-68
2021/10/06 00:20:41;;;;;;;6.13;2.95;;;11.30;99.90;;;;;;4988443;28;20408;-68
2021/10/06 00:23:07;;;;;;;3.97;2.80;;;11.30;99.90;;;;;;4991448;28;20125;-67
2021/10/06 00:25:33;;;;;;;8.18;3.25;;;11.30;99.90;;;;;;4991803;28;20080;-67
2021/10/06 00:27:59;;;;;;;5.80;2.88;;;11.30;99.90;;;;;;4991842;28;20058;-67
2021/10/06 00:30:25;;;;;;;6.10;3.00;;;11.30;99.90;;;;;;4991492;28;20101;-68
2021/10/06 00:32:50;;;;;;;4.00;2.70;;;11.30;99.90;;;;;;4991821;28;20026;-67
2021/10/06 00:35:16;;;;;;;4.63;2.63;;;11.30;99.90;;;;;;4991906;28;20025;-68
2021/10/06 00:37:42;;;;;;;9.50;3.38;;;11.20;99.90;;;;;;4991667;28;20050;-67
2021/10/06 00:40:09;;;;;;;5.28;2.97;;;11.20;99.90;;;;;;4991549;28;20026;-68
2021/10/06 00:42:36;;;;;;;5.80;3.25;;;11.20;99.90;;;;;;4992016;28;20034;-68
2021/10/06 00:45:03;;;;;;;6.65;3.20;;;11.20;99.90;;;;;;4991645;28;20027;-67
2021/10/06 00:47:29;;;;;;;6.78;3.13;;;11.30;99.90;;;;;;4991458;28;20038;-67
2021/10/06 00:49:54;;;;;;;4.00;2.83;;;11.20;99.90;;;;;;4976746;28;20025;-67
2021/10/06 00:52:20;;;;;;;5.68;3.20;;;11.30;99.90;;;;;;4990504;28;20067;-68
2021/10/06 00:54:46;;;;;;;6.85;2.92;;;11.30;99.90;;;;;;4991268;28;20064;-67
2021/10/06 00:57:12;;;;;;;7.47;3.08;;;11.30;99.90;;;;;;4991486;28;20386;-67
2021/10/06 00:59:38;;;;;;;9.00;3.10;;;11.30;99.90;;;;;;4991390;28;20034;-67
2021/10/06 01:02:04;;;;;;;7.38;3.55;;;11.30;99.90;;;;;;4991336;28;20114;-68
2021/10/06 01:04:32;;;;;;;8.85;3.17;;;11.30;99.90;;;;;;4991393;28;20117;-68
2021/10/06 01:06:58;;;;;;;6.75;3.80;;;11.30;99.90;;;;;;4991364;28;20363;-67
2021/10/06 01:09:30;;;;;;;5.43;3.10;;;11.30;99.90;;;;;;4991311;28;20061;-68
2021/10/06 01:11:57;;;;;;;10.10;3.10;;;11.30;99.90;;;;;;4991462;28;20500;-67
2021/10/06 01:14:26;;;;;;;6.30;2.95;;;11.30;99.90;;;;;;4990969;28;20493;-68
2021/10/06 01:16:53;;;;;;;7.75;3.08;;;11.30;99.90;;;;;;4991308;28;20109;-67
2021/10/06 01:19:21;;;;;;;10.02;3.20;;;11.30;99.90;;;;;;4991058;28;20030;-68
2021/10/06 01:21:48;;;;;;;10.45;3.50;;;11.30;99.90;;;;;;4991182;28;20834;-67
2021/10/06 01:24:13;;;;;;;8.82;3.30;;;11.20;99.90;;;;;;4990887;28;20466;-67
2021/10/06 01:26:39;;;;;;;8.80;3.38;;;11.30;99.90;;;;;;4990750;28;20031;-68
2021/10/06 01:29:05;;;;;;;6.93;2.92;;;11.30;99.90;;;;;;4990715;28;20076;-68
2021/10/06 01:31:31;;;;;;;7.88;3.33;;;11.30;99.90;;;;;;4990805;28;20054;-67
2021/10/06 01:33:56;;;;;;;6.68;3.42;;;11.30;99.90;;;;;;4990067;28;20034;-68
2021/10/06 01:36:22;;;;;;;17.02;3.45;;;11.30;99.90;;;;;;4991072;28;20413;-67
2021/10/06 01:38:48;;;;;;;4.68;2.95;;;11.30;99.90;;;;;;4990693;28;20031;-68
2021/10/06 01:41:14;;;;;;;7.97;3.53;;;11.30;99.90;;;;;;4991029;28;20027;-67
2021/10/06 01:43:40;;;;;;;10.63;3.67;;;11.30;99.90;;;;;;4990531;28;20057;-67
2021/10/06 01:46:05;;;;;;;10.68;3.35;;;11.20;99.90;;;;;;4990938;28;20034;-68
2021/10/06 01:48:31;;;;;;;7.80;3.72;;;11.20;99.90;;;;;;4990290;28;20042;-69
2021/10/06 01:50:57;;;;;;;12.63;3.50;;;11.20;99.90;;;;;;4990944;28;20034;-68
2021/10/06 01:53:23;;;;;;;9.65;3.58;;;11.20;99.90;;;;;;4990461;28;20477;-68
2021/10/06 01:55:48;;;;;;;11.55;3.70;;;11.20;99.90;;;;;;4990184;28;20042;-67
2021/10/06 01:58:17;;;;;;;8.77;3.53;;;11.20;99.90;;;;;;4990674;28;20436;-67
2021/10/06 02:00:45;;;;;;;9.00;3.33;;;11.30;99.90;;;;;;4990382;28;20038;-67
2021/10/06 02:03:11;;;;;;;5.45;3.45;;;11.20;99.90;;;;;;4990585;28;20371;-67
2021/10/06 02:05:37;;;;;;;7.20;3.10;;;11.20;99.90;;;;;;4990640;28;20101;-67
2021/10/06 02:08:05;;;;;;;6.20;3.53;;;11.20;99.90;;;;;;4990588;28;20046;-67
2021/10/06 02:10:32;;;;;;;6.30;3.30;;;11.20;99.90;;;;;;4990256;28;20447;-67
2021/10/06 02:12:59;;;;;;;8.60;3.40;;;11.20;99.90;;;;;;4990275;28;20038;-67
2021/10/06 02:15:25;;;;;;;5.90;2.80;;;11.20;99.90;;;;;;4990152;28;20036;-67
2021/10/06 02:17:51;;;;;;;9.15;3.05;;;11.20;99.90;;;;;;4990350;28;20083;-67
2021/10/06 02:20:17;;;;;;;5.10;2.78;;;11.20;99.90;;;;;;4990040;28;20064;-67
2021/10/06 02:22:43;;;;;;;11.45;3.55;;;11.20;99.90;;;;;;4990023;28;20058;-68
2021/10/06 02:54:13;;;;;;;6.93;2.90;;;11.10;99.90;;;;;;4989583;28;21512;-66
2021/10/06 02:56:39;;;;;;;4.57;2.83;;;11.10;99.90;;;;;;4989509;28;20164;-66
2021/10/06 02:59:04;;;;;;;5.00;2.95;;;11.10;99.90;;;;;;4989359;28;20023;-66
2021/10/06 03:01:30;;;;;;;6.45;2.90;;;11.10;99.90;;;;;;4989663;28;20470;-66
2021/10/06 03:03:56;;;;;;;6.60;2.70;;;11.20;99.90;;;;;;4989243;28;20399;-66
2021/10/06 03:06:21;;;;;;;6.45;3.00;;;11.20;99.90;;;;;;4989300;28;20029;-66
2021/10/06 03:08:47;;;;;;;9.35;2.58;;;11.10;99.90;;;;;;4989346;28;20039;-66
2021/10/06 03:11:13;;;;;;;5.45;2.63;;;11.20;99.90;;;;;;4989320;28;20026;-66
2021/10/06 03:13:38;;;;;;;4.80;2.53;;;11.20;99.90;;;;;;4989407;28;20034;-66
2021/10/06 03:16:04;;;;;;;8.43;3.08;;;11.20;99.90;;;;;;4989297;28;20045;-66
2021/10/06 03:18:30;;;;;;;7.18;2.80;;;11.20;99.90;;;;;;4989382;28;20037;-66
2021/10/06 03:20:56;;;;;;;4.93;2.45;;;11.20;99.90;;;;;;4989116;28;20026;-66
2021/10/06 03:23:22;;;;;;;4.25;2.53;;;11.20;99.90;;;;;;4989521;28;20370;-66
2021/10/06 03:25:48;;;;;;;6.10;2.55;;;11.20;99.90;;;;;;4989220;28;20045;-66
2021/10/06 03:28:14;;;;;;;10.25;2.55;;;11.20;99.90;;;;;;4989428;28;20072;-66
2021/10/06 03:30:40;;;;;;;5.50;2.10;;;11.20;99.90;;;;;;4989622;28;20632;-66
2021/10/06 03:33:06;;;;;;;10.60;2.13;;;11.20;99.90;;;;;;4987991;28;20382;-66
2021/10/06 03:35:32;;;;;;;4.85;2.30;;;11.20;99.90;;;;;;4989610;28;20053;-66
2021/10/06 03:37:58;;;;;;;10.50;3.75;;;11.20;99.90;;;;;;4988982;28;20478;-66
2021/10/06 03:40:24;;;;;;;4.05;2.40;;;11.20;99.90;;;;;;4989396;28;20033;-66
2021/10/06 03:42:50;;;;;;;5.03;2.20;;;11.20;99.90;;;;;;4989032;28;20524;-68
2021/10/06 03:45:16;;;;;;;8.00;2.58;;;11.20;99.90;;;;;;4989041;28;20045;-67
2021/10/06 03:47:43;;;;;;;7.95;2.75;;;11.30;99.90;;;;;;4988897;28;20041;-67
2021/10/06 03:50:10;;;;;;;9.27;2.20;;;11.30;99.90;;;;;;4988898;28;20042;-67
2021/10/06 03:52:36;;;;;;;4.10;2.30;;;11.30;99.90;;;;;;4989292;28;20045;-67
2021/10/06 03:55:02;;;;;;;7.32;2.45;;;11.30;99.90;;;;;;4988404;28;20072;-67
2021/10/06 03:57:28;;;;;;;2.53;2.17;;;11.30;99.90;;;;;;4990940;28;20067;-67
2021/10/06 03:59:54;;;;;;;5.93;2.70;;;11.30;99.90;;;;;;4992046;28;20061;-67
2021/10/06 04:02:19;;;;;;;7.40;2.28;;;11.30;99.90;;;;;;4992671;28;20041;-67
2021/10/06 04:04:46;;;;;;;8.00;2.65;;;11.30;99.90;;;;;;4992362;28;20018;-67
2021/10/06 04:07:11;;;;;;;3.58;2.60;;;11.30;99.90;;;;;;4992535;28;20037;-67
2021/10/06 04:09:38;;;;;;;5.40;2.55;;;11.30;99.90;;;;;;4992013;28;20051;-67
2021/10/06 04:12:04;;;;;;;7.68;2.63;;;11.30;99.90;;;;;;4991888;28;20024;-67
2021/10/06 04:14:30;;;;;;;4.68;2.40;;;11.30;99.90;;;;;;4992071;28;20061;-67
2021/10/06 04:16:56;;;;;;;6.32;2.55;;;11.30;99.90;;;;;;4991862;28;20490;-67
2021/10/06 04:19:21;;;;;;;6.97;2.20;;;11.40;99.90;;;;;;4992028;28;20417;-67
2021/10/06 04:21:47;;;;;;;4.72;2.08;;;11.40;99.90;;;;;;4991863;28;20117;-67
2021/10/06 04:24:13;;;;;;;4.55;2.33;;;11.30;99.90;;;;;;4992323;28;20040;-67
2021/10/06 04:26:38;;;;;;;7.03;2.60;;;11.30;99.90;;;;;;4992097;28;20374;-67
2021/10/06 04:29:04;;;;;;;8.50;2.70;;;11.30;99.90;;;;;;4991957;28;20533;-68
2021/10/06 04:31:30;;;;;;;5.60;2.78;;;11.30;99.90;;;;;;4992175;28;20030;-69
2021/10/06 04:33:56;;;;;;;5.07;2.38;;;11.30;99.90;;;;;;4991652;28;20038;-69
2021/10/06 04:36:21;;;;;;;3.58;2.42;;;11.30;99.90;;;;;;4991571;28;20109;-72
2021/10/06 04:38:47;;;;;;;3.92;2.58;;;11.30;99.90;;;;;;4991965;28;20057;-71
2021/10/06 04:41:13;;;;;;;7.68;3.03;;;11.30;99.90;;;;;;4991927;28;20034;-69
2021/10/06 04:43:39;;;;;;;10.93;2.90;;;11.30;99.90;;;;;;4991568;28;20038;-71
2021/10/06 04:46:04;;;;;;;9.90;2.80;;;11.80;99.90;;;;;;4991269;28;20034;-69
2021/10/06 04:48:30;;;;;;;4.25;2.65;;;11.80;99.90;;;;;;4990681;28;20068;-73
2021/10/06 04:50:56;;;;;;;6.22;2.55;;;11.70;99.90;;;;;;4991129;28;20033;-74
2021/10/06 04:53:21;;;;;;;8.07;2.42;;;11.60;99.90;;;;;;4990758;28;20500;-74
2021/10/06 04:55:48;;;;;;;5.60;2.92;;;11.50;99.90;;;;;;4990061;28;20061;-74
2021/10/06 04:58:14;;;;;;;9.18;2.70;;;11.50;99.90;;;;;;4990812;28;20117;-74
2021/10/06 05:00:40;;;;;;;11.30;3.58;;;11.50;99.90;;;;;;4989067;28;20044;-73
2021/10/06 05:03:10;;;;;;;7.95;3.10;;;11.50;99.90;;;;;;4988463;28;20498;-73
2021/10/06 05:05:37;;;;;;;9.05;2.90;;;11.40;99.90;;;;;;4985023;28;20034;-70
2021/10/06 05:08:03;;;;;;;6.65;2.92;;;11.40;99.90;;;;;;4985149;28;20038;-68
2021/10/06 05:10:29;;;;;;;9.60;2.67;;;11.30;99.90;;;;;;4989916;28;20029;-68
2021/10/06 05:12:55;;;;;;;5.70;2.47;;;11.30;99.90;;;;;;4990132;28;20030;-69
2021/10/06 05:15:21;;;;;;;7.32;2.88;;;11.30;99.90;;;;;;4990170;28;20102;-70
2021/10/06 05:17:46;;;;;;;8.40;3.70;;;11.40;99.90;;;;;;4989723;28;20023;-69
2021/10/06 05:20:12;;;;;;;15.50;3.45;;;11.40;99.90;;;;;;4990011;28;20019;-70
2021/10/06 05:22:38;;;;;;;15.60;3.55;;;11.40;99.90;;;;;;4990209;28;20033;-70
2021/10/06 05:25:04;;;;;;;13.10;3.50;;;11.40;99.90;;;;;;4989846;28;20022;-70
2021/10/06 05:27:30;;;;;;;12.02;3.08;;;11.40;99.90;;;;;;4990174;28;20027;-70
2021/10/06 05:30:01;;;;;;;9.80;3.42;;;11.30;99.90;;;;;;4988621;28;20029;-69
2021/10/06 05:32:27;;;;;;;25.63;4.05;;;11.30;99.90;;;;;;4986067;28;20034;-70
2021/10/06 05:34:52;;;;;;;26.15;3.58;;;11.30;99.90;;;;;;4990039;28;20026;-69
2021/10/06 05:37:18;;;;;;;6.90;3.67;;;11.30;99.90;;;;;;4988621;28;20019;-69
2021/10/06 05:39:44;;;;;;;7.13;3.15;;;11.30;99.90;;;;;;4990072;28;20468;-70
2021/10/06 05:42:10;;;;;;;11.77;3.10;;;11.40;99.90;;;;;;4990183;28;20086;-70
2021/10/06 05:44:36;;;;;;;7.47;2.88;;;11.40;99.90;;;;;;4986638;28;20152;-70
2021/10/06 05:47:02;;;;;;;5.57;2.97;;;11.40;99.90;;;;;;4989164;28;20026;-70
2021/10/06 05:49:27;;;;;;;5.85;3.40;;;11.30;99.90;;;;;;4989684;28;20058;-71
2021/10/06 05:51:53;;;;;;;5.55;2.80;;;11.30;99.90;;;;;;4987915;28;20058;-70
2021/10/06 05:54:19;;;;;;;6.95;3.15;;;11.30;99.90;;;;;;4987461;28;20084;-68
2021/10/06 05:56:45;;;;;;;8.77;3.10;;;11.30;99.90;;;;;;4986872;28;20026;-69
2021/10/06 05:59:11;;;;;;;8.45;3.38;;;11.40;99.90;;;;;;4984078;28;20052;-69
2021/10/06 06:01:37;;;;;;;9.35;3.05;;;11.40;99.90;;;;;;4989423;28;20030;-69
2021/10/06 06:04:03;;;;;;;8.52;3.55;;;11.40;99.90;;;;;;4989332;28;20478;-69
2021/10/06 06:06:28;;;;;;;13.35;4.72;;;11.40;99.90;;;;;;4989686;28;20030;-69
2021/10/06 06:08:54;;;;;;;10.75;4.63;;;11.30;99.90;;;;;;4986781;28;20034;-69
2021/10/06 06:11:22;;;;;;;7.15;3.40;;;11.30;99.90;;;;;;4988775;28;20018;-69
2021/10/06 06:13:49;;;;;;;9.98;3.88;;;11.30;99.90;;;;;;4987261;28;20473;-69
2021/10/06 06:16:14;;;;;;;11.82;4.32;;;11.30;99.90;;;;;;4988291;28;20042;-69
2021/10/06 06:18:40;;;;;;;8.52;4.28;;;11.30;99.90;;;;;;4987798;28;20025;-69
2021/10/06 06:21:06;;;;;;;13.82;5.13;;;11.30;99.90;;;;;;4989387;28;20068;-69
2021/10/06 06:23:32;;;;;;;8.13;4.95;;;11.30;99.90;;;;;;4986038;28;20030;-69
2021/10/06 06:25:59;;;;;;;9.20;5.45;;;11.20;99.90;;;;;;4988111;28;20094;-69
2021/10/06 06:28:25;;;;;;;14.70;5.78;;;11.30;99.90;;;;;;4989354;28;20121;-68
2021/10/06 06:30:51;;;;;;;11.23;5.90;;;11.20;99.90;;;;;;4989235;28;20038;-69
2021/10/06 06:33:17;;;;;;;13.07;6.20;;;11.30;99.90;;;;;;4989537;28;20027;-69
2021/10/06 06:35:43;;;;;;;12.55;5.80;;;11.20;99.90;;;;;;4987704;28;20105;-69
2021/10/06 06:38:08;;;;;;;9.80;6.70;;;11.30;99.90;;;;;;4988540;28;20114;-69
2021/10/06 06:40:34;;;;;;;10.73;6.47;;;11.20;99.90;;;;;;4987777;28;20034;-71
2021/10/06 06:43:00;;;;;;;10.40;5.90;;;11.20;99.90;;;;;;4989366;28;20075;-69
2021/10/06 06:45:26;;;;;;;10.52;6.18;;;11.20;99.90;;;;;;4989172;28;20084;-69
2021/10/06 06:47:52;;;;;;;8.77;6.15;;;11.20;99.90;;;;;;4989562;28;20034;-69
2021/10/06 06:50:18;;;;;;;10.40;6.43;;;11.30;99.90;;;;;;4989247;28;20502;-69
2021/10/06 06:52:44;;;;;;;8.55;6.00;;;11.30;99.90;;;;;;4989734;28;20065;-69
2021/10/06 06:55:10;;;;;;;14.30;6.80;;;11.30;99.90;;;;;;4989323;28;20100;-71
2021/10/06 06:57:36;;;;;;;9.85;6.03;;;11.30;99.90;;;;;;4989423;28;20054;-70
2021/10/06 07:00:04;;;;;;;11.00;6.38;;;11.20;99.90;;;;;;4989220;28;20026;-71
2021/10/06 07:02:30;;;;;;;14.57;6.55;;;11.20;99.90;;;;;;4988818;28;20028;-71
2021/10/06 07:04:55;;;;;;;10.38;6.07;;;11.20;99.90;;;;;;4989249;28;20031;-71
2021/10/06 07:07:21;;;;;;;12.27;5.53;;;11.40;99.90;;;;;;4989143;28;20026;-71
2021/10/06 07:09:50;;;;;;;10.10;6.35;;;11.50;99.90;;;;;;4989388;28;20030;-71
2021/10/06 07:12:17;;;;;;;12.80;6.32;;;11.50;99.90;;;;;;4989145;28;20521;-71
2021/10/06 07:14:43;;;;;;;12.93;6.35;;;11.50;99.90;;;;;;4989250;28;20035;-71
2021/10/06 07:17:10;;;;;;;7.32;5.53;;;11.50;99.90;;;;;;4989148;28;20105;-71
2021/10/06 07:19:37;;;;;;;9.82;4.82;;;11.40;99.90;;;;;;4989316;28;20027;-71
2021/10/06 07:22:04;;;;;;;11.52;5.88;;;11.40;99.90;;;;;;4989384;28;20057;-70
2021/10/06 07:24:30;;;;;;;8.20;5.35;;;11.40;99.90;;;;;;4989306;28;20030;-71
2021/10/06 07:26:56;;;;;;;9.30;5.07;;;11.40;99.90;;;;;;4989074;28;20034;-71
2021/10/06 07:29:22;;;;;;;8.05;5.32;;;11.40;99.90;;;;;;4989042;28;20031;-72
2021/10/06 07:31:48;;;;;;;8.38;5.28;;;11.40;99.90;;;;;;4990423;28;20026;-70
2021/10/06 07:34:13;;;;;;;15.13;6.90;;;11.40;99.90;;;;;;4991056;28;20327;-70
2021/10/06 07:36:39;;;;;;;9.30;5.28;;;11.50;99.90;;;;;;4992728;28;20023;-70
2021/10/06 07:39:06;;;;;;;8.40;5.38;;;11.50;99.90;;;;;;4992604;28;20026;-70
2021/10/06 07:41:33;;;;;;;9.13;5.75;;;11.50;99.90;;;;;;4992774;28;20036;-70
2021/10/06 07:43:59;;;;;;;14.73;6.07;;;11.50;99.90;;;;;;4992361;28;20083;-70
2021/10/06 07:46:24;;;;;;;9.63;5.20;;;11.50;99.90;;;;;;4992588;28;20405;-70
2021/10/06 07:48:50;;;;;;;8.75;5.03;;;11.50;99.90;;;;;;4992261;28;20038;-70
2021/10/06 07:51:17;;;;;;;8.23;5.57;;;11.50;99.90;;;;;;4992182;28;20023;-70
2021/10/06 07:53:43;;;;;;;7.20;5.10;;;11.50;99.90;;;;;;4992055;28;20029;-70
2021/10/06 07:56:09;;;;;;;10.30;5.28;;;11.50;99.90;;;;;;4988331;28;20501;-71
2021/10/06 07:58:34;;;;;;;9.05;5.22;;;11.50;99.90;;;;;;4992337;28;20474;-69
2021/10/06 08:01:00;;;;;;;10.40;5.72;;;11.50;99.90;;;;;;4991821;28;20113;-69
2021/10/06 08:03:26;;;;;;;9.32;5.38;;;11.50;99.90;;;;;;4991970;28;20087;-69
2021/10/06 08:05:52;;;;;;;7.90;5.47;;;11.50;99.90;;;;;;4992289;28;20110;-69
2021/10/06 08:08:17;;;;;;;10.60;5.50;;;11.50;99.90;;;;;;4992134;28;20034;-69
2021/10/06 08:10:43;;;;;;;8.73;4.70;;;11.50;99.90;;;;;;4992049;28;20014;-69
2021/10/06 08:13:09;;;;;;;10.45;5.40;;;11.50;99.90;;;;;;4991770;28;20031;-69
2021/10/06 08:15:36;;;;;;;8.40;4.75;;;11.50;99.90;;;;;;4991655;28;20026;-69
2021/10/06 08:18:03;;;;;;;9.13;5.15;;;11.50;99.90;;;;;;4991559;28;20160;-69
2021/10/06 08:20:33;;;;;;;5.75;3.80;;;11.50;99.90;;;;;;4991723;28;20034;-70
2021/10/06 08:23:00;;;;;;;6.50;4.70;;;11.50;99.90;;;;;;4992016;28;20058;-70
2021/10/06 08:25:27;;;;;;;7.07;4.57;;;11.50;99.90;;;;;;4991872;28;20075;-70
2021/10/06 08:27:54;;;;;;;8.15;4.28;;;11.50;99.90;;;;;;4991963;28;20088;-70
2021/10/06 08:30:23;;;;;;;6.03;4.03;;;11.50;99.90;;;;;;4991431;28;20049;-70
2021/10/06 08:32:49;;;;;;;5.43;3.45;;;11.50;99.90;;;;;;4991683;28;20583;-70
2021/10/06 08:35:15;;;;;;;6.45;4.43;;;11.50;99.90;;;;;;4991691;28;20030;-70
2021/10/06 08:37:41;;;;;;;6.78;3.65;;;11.50;99.90;;;;;;4991685;28;20027;-70
2021/10/06 08:40:08;;;;;;;6.10;2.97;;;11.50;99.90;;;;;;4991674;28;20034;-70
2021/10/06 08:42:34;;;;;;;4.53;3.17;;;11.50;99.90;;;;;;4991531;28;20113;-70
2021/10/06 08:45:07;;;;;;;6.38;3.65;;;11.50;99.90;;;;;;4991759;28;20098;-70
2021/10/06 08:47:35;;;;;;;6.82;3.17;;;11.50;99.90;;;;;;4991869;28;20053;-69
2021/10/06 08:50:01;;;;;;;5.15;3.00;;;11.50;99.90;;;;;;4991271;28;20084;-70
2021/10/06 08:52:28;;;;;;;5.25;3.38;;;11.50;99.90;;;;;;4991879;28;20114;-70
2021/10/06 08:54:53;;;;;;;5.97;2.70;;;11.50;99.90;;;;;;4991217;28;20046;-69
2021/10/06 08:57:20;;;;;;;4.78;3.42;;;11.50;99.90;;;;;;4991209;28;20091;-70
2021/10/06 08:59:46;;;;;;;5.30;3.47;;;11.50;99.90;;;;;;4991500;28;20102;-70
2021/10/06 09:02:14;;;;;;;6.00;3.63;;;11.50;99.90;;;;;;4991382;28;20122;-69
2021/10/06 09:04:41;;;;;;;3.70;2.72;;;11.50;99.90;;;;;;4991250;28;20428;-69
2021/10/06 09:07:07;;;;;;;4.32;3.05;;;11.50;99.90;;;;;;4990936;28;20037;-69
2021/10/06 09:09:37;;;;;;;3.22;2.92;;;11.50;99.90;;;;;;4990930;28;20139;-70
2021/10/06 09:12:18;;;;;;;4.28;3.30;;;11.40;99.90;;;;;;4991184;28;20021;-70
2021/10/06 09:14:46;;;;;;;4.55;3.50;;;11.40;99.90;;;;;;4991017;28;20078;-70
2021/10/06 09:17:20;;;;;;;4.05;3.00;;;11.40;99.90;;;;;;4990990;28;20025;-70
2021/10/06 09:19:52;;;;;;;3.88;2.85;;;11.30;99.90;;;;;;4991503;28;20465;-69
2021/10/06 09:22:36;;;;;;;3.08;2.03;;;11.30;99.90;;;;;;4989850;28;20026;-70
2021/10/06 09:25:06;;;;;;;2.03;1.80;;;11.20;99.90;;;;;;4991047;28;20434;-70
2021/10/06 09:27:37;;;;;;;5.13;1.95;;;11.20;99.90;;;;;;4990721;28;20489;-70
2021/10/06 09:30:12;;;;;;;1.92;1.73;;;11.20;99.90;;;;;;4982756;28;20031;-70
2021/10/06 09:32:40;;;;;;;3.13;1.70;;;11.20;99.90;;;;;;4986713;28;20022;-69
2021/10/06 09:35:17;;;;;;;2.13;1.80;;;11.20;99.90;;;;;;4989945;28;20420;-70
2021/10/06 09:37:51;;;;;;;2.03;1.83;;;11.10;99.90;;;;;;4989813;28;20026;-70
2021/10/06 09:40:24;;;;;;;3.58;1.75;;;11.10;99.90;;;;;;4989870;28;20042;-70
2021/10/06 09:42:52;;;;;;;3.78;1.92;;;11.10;99.90;;;;;;4990059;28;20045;-70
2021/10/06 09:45:24;;;;;;;1.85;1.63;;;11.10;99.90;;;;;;4989989;28;20027;-70
2021/10/06 09:48:04;;;;;;;2.45;1.90;;;11.10;99.90;;;;;;4990191;28;20069;-70
2021/10/06 09:50:31;;;;;;;4.88;2.40;;;11.10;99.90;;;;;;4989393;28;20538;-70
2021/10/06 09:53:09;;;;;;;4.25;1.70;;;11.10;99.90;;;;;;4989948;28;20037;-70
2021/10/06 09:55:36;;;;;;;3.33;1.80;;;11.10;99.90;;;;;;4987873;28;20054;-70
2021/10/06 09:58:03;;;;;;;3.00;2.42;;;11.10;99.90;;;;;;4990101;28;20029;-70
2021/10/06 10:00:30;;;;;;;2.92;2.05;;;11.10;99.90;;;;;;4990178;28;20027;-70
2021/10/06 10:02:57;;;;;;;1.80;1.52;;;11.10;99.90;;;;;;4990492;28;20120;-70
2021/10/06 10:05:23;;;;;;;2.60;1.88;;;11.10;99.90;;;;;;4989924;28;20026;-70
2021/10/06 10:07:51;;;;;;;2.92;2.10;;;11.00;99.90;;;;;;4990402;28;20034;-70
2021/10/06 10:10:17;;;;;;;8.65;2.47;;;11.00;99.90;;;;;;4990063;28;20367;-70
2021/10/06 10:12:43;;;;;;;2.40;1.85;;;11.00;99.90;;;;;;4989689;28;20075;-70
2021/10/06 10:15:10;;;;;;;2.10;1.90;;;11.00;99.90;;;;;;4984033;28;20367;-70
2021/10/06 10:17:36;;;;;;;5.20;2.03;;;11.00;99.90;;;;;;4989601;28;20664;-70
2021/10/06 10:20:10;;;;;;;5.13;2.10;;;11.00;99.90;;;;;;4989676;28;20616;-70
2021/10/06 10:22:39;;;;;;;3.35;2.22;;;11.00;99.90;;;;;;4988764;28;20032;-70
2021/10/06 10:25:28;;;;;;;9.55;2.20;;;11.00;99.90;;;;;;4986682;28;20045;-70
2021/10/06 10:28:00;;;;;;;4.15;2.53;;;11.00;99.90;;;;;;4977691;28;20647;-70
2021/10/06 10:30:27;;;;;;;4.35;2.60;;;11.00;99.90;;;;;;4989996;28;20037;-71
2021/10/06 10:32:53;;;;;;;2.75;1.90;;;11.00;99.90;;;;;;4990012;28;20049;-70
2021/10/06 10:35:32;;;;;;;3.30;2.30;;;11.00;99.90;;;;;;4989612;28;20466;-70
2021/10/06 10:38:00;;;;;;;4.70;2.88;;;10.90;99.90;;;;;;4983578;28;20474;-70
2021/10/06 10:40:35;;;;;;;2.33;2.13;;;10.90;99.90;;;;;;4989459;28;20104;-70
2021/10/06 10:43:18;;;;;;;5.47;3.25;;;10.90;99.90;;;;;;4989808;28;20026;-70
2021/10/06 10:45:48;;;;;;;7.68;3.30;;;10.90;99.90;;;;;;4976178;28;20036;-70
2021/10/06 10:48:23;;;;;;;4.13;2.72;;;10.90;99.90;;;;;;4989941;28;20088;-70
2021/10/06 10:50:49;;;;;;;2.50;2.30;;;10.90;99.90;;;;;;4984152;28;20371;-70
2021/10/06 10:53:17;;;;;;;3.40;2.30;;;10.90;99.90;;;;;;4989588;28;20060;-70
2021/10/06 10:55:55;;;;;;;5.75;2.47;;;10.90;99.90;;;;;;4989305;28;20134;-70
2021/10/06 10:58:36;;;;;;;2.15;1.95;;;10.90;99.90;;;;;;4989731;28;20033;-71
2021/10/06 11:01:07;;;;;;;2.53;2.33;;;10.80;99.90;;;;;;4989477;28;20068;-71
2021/10/06 11:04:11;;;;;;;4.28;2.50;;;10.80;99.90;;;;;;4989543;28;20054;-70
2021/10/06 11:06:40;;;;;;;2.83;2.10;;;10.80;99.90;;;;;;4989506;28;20044;-71
2021/10/06 11:09:30;;;;;;;2.85;2.10;;;10.80;99.90;;;;;;4989435;28;20066;-70
2021/10/06 11:12:05;;;;;;;3.80;2.08;;;10.70;99.90;;;;;;4988968;28;20026;-70
2021/10/06 11:14:35;;;;;;;2.65;2.40;;;10.80;99.90;;;;;;4988411;28;20026;-70
2021/10/06 11:17:15;;;;;;;6.82;2.97;;;10.80;99.90;;;;;;4982772;28;20561;-70
2021/10/06 11:19:47;;;;;;;3.60;2.42;;;10.80;99.90;;;;;;4976712;28;20058;-70
2021/10/06 11:22:22;;;;;;;6.13;2.60;;;10.80;99.90;;;;;;4988962;28;20022;-70
2021/10/06 11:24:58;;;;;;;5.28;2.78;;;10.70;99.90;;;;;;4989494;28;20064;-70
2021/10/06 11:27:25;;;;;;;3.65;2.55;;;10.70;99.90;;;;;;4976786;28;20030;-70
2021/10/06 11:29:53;;;;;;;3.40;2.85;;;10.70;99.90;;;;;;4989323;28;20030;-70
2021/10/06 11:32:19;;;;;;;2.80;2.22;;;10.70;99.90;;;;;;4988971;28;20031;-70
2021/10/06 11:34:53;;;;;;;7.15;2.90;;;10.70;99.90;;;;;;4989171;28;20230;-70
2021/10/06 11:37:26;;;;;;;3.63;2.50;;;10.70;99.90;;;;;;4989131;28;20478;-70
2021/10/06 11:39:53;;;;;;;3.58;2.92;;;10.70;99.90;;;;;;4989061;28;20122;-70
2021/10/06 11:42:18;;;;;;;3.85;3.15;;;10.70;99.90;;;;;;4975389;28;20502;-71
2021/10/06 11:44:45;;;;;;;7.82;3.50;;;10.70;99.90;;;;;;4989167;28;20041;-71
2021/10/06 11:47:18;;;;;;;7.47;3.10;;;10.70;99.90;;;;;;4989094;28;20022;-71
2021/10/06 11:49:49;;;;;;;5.25;3.20;;;10.60;99.90;;;;;;4989000;28;20045;-71
2021/10/06 11:52:17;;;;;;;6.10;3.22;;;10.60;99.90;;;;;;4988879;28;20034;-71
2021/10/06 11:54:44;;;;;;;9.27;4.25;;;10.60;99.90;;;;;;4988747;28;20516;-70
2021/10/06 11:57:13;;;;;;;7.30;4.05;;;10.60;99.90;;;;;;4988751;28;20106;-70
2021/10/06 11:59:42;;;;;;;6.88;4.28;;;10.60;99.90;;;;;;4988825;28;20121;-70
2021/10/06 12:02:10;;;;;;;4.57;3.50;;;10.60;99.90;;;;;;4988648;28;20033;-70
2021/10/06 12:04:50;;;;;;;3.42;3.10;;;10.60;99.90;;;;;;4988763;28;20031;-70
2021/10/06 12:07:17;;;;;;;6.07;4.07;;;10.50;99.90;;;;;;4987126;28;20100;-70
2021/10/06 12:09:47;;;;;;;5.95;3.92;;;10.50;99.90;;;;;;4988873;28;20390;-70
2021/10/06 12:12:24;;;;;;;4.25;3.67;;;10.50;99.90;;;;;;4988366;28;20022;-70
2021/10/06 12:15:08;;;;;;;8.50;3.63;;;10.60;99.90;;;;;;4987858;28;20038;-70
2021/10/06 12:17:43;;;;;;;3.50;3.03;;;10.60;99.90;;;;;;4989355;28;20022;-70
2021/10/06 12:20:11;;;;;;;6.68;3.65;;;10.70;99.90;;;;;;4991739;28;20022;-70
2021/10/06 12:22:38;;;;;;;5.07;3.72;;;10.70;99.90;;;;;;4991828;28;20097;-70
2021/10/06 12:25:08;;;;;;;4.60;3.70;;;10.70;99.90;;;;;;4991992;28;20033;-69
2021/10/06 12:27:37;;;;;;;5.05;3.80;;;10.60;99.90;;;;;;4991630;28;20038;-71
2021/10/06 12:30:14;;;;;;;10.05;5.55;;;10.60;99.90;;;;;;4992090;28;20030;-69
2021/10/06 12:32:41;;;;;;;5.93;3.80;;;10.60;99.90;;;;;;4991995;28;20144;-69
2021/10/06 12:35:10;;;;;;;5.45;3.75;;;10.60;99.90;;;;;;4992151;28;20359;-69
2021/10/06 12:37:47;;;;;;;5.45;4.00;;;10.80;99.90;;;;;;4991549;28;20027;-69
2021/10/06 12:40:38;;;;;;;3.50;3.20;;;10.70;99.90;;;;;;4991599;28;20027;-69
2021/10/06 12:43:11;;;;;;;6.00;3.60;;;10.80;99.90;;;;;;4991599;28;20034;-69
2021/10/06 12:46:04;;;;;;;4.03;3.55;;;11.20;99.90;;;;;;4991680;28;20018;-70
2021/10/06 12:48:44;;;;;;;5.60;3.97;;;11.00;99.90;;;;;;4990296;28;20046;-69
2021/10/06 12:51:32;;;;;;;6.55;3.55;;;10.80;99.90;;;;;;4980006;28;20103;-69
2021/10/06 12:53:57;;;;;;;8.35;3.65;;;10.70;99.90;;;;;;4975491;28;20080;-69
2021/10/06 12:56:31;;;;;;;5.00;3.90;;;10.70;99.90;;;;;;4977832;28;20034;-69
2021/10/06 12:59:06;;;;;;;11.07;4.10;;;10.70;99.90;;;;;;4974927;28;20023;-70
2021/10/06 13:01:32;;;;;;;5.00;3.70;;;10.70;99.90;;;;;;4974898;28;20118;-69
2021/10/06 13:04:02;;;;;;;5.60;3.92;;;10.70;99.90;;;;;;4990748;28;20083;-68
2021/10/06 13:06:29;;;;;;;11.35;5.80;;;10.70;99.90;;;;;;4983559;28;20030;-68
2021/10/06 13:08:55;;;;;;;10.38;5.15;;;10.70;99.90;;;;;;4978159;28;20050;-68
2021/10/06 13:11:22;;;;;;;5.28;4.65;;;10.70;99.90;;;;;;4980010;28;20050;-68
2021/10/06 13:13:49;;;;;;;5.68;4.68;;;10.70;99.90;;;;;;4990909;28;20027;-68
2021/10/06 13:16:15;;;;;;;6.60;4.88;;;10.70;99.90;;;;;;4982188;28;20478;-68
2021/10/06 13:18:42;;;;;;;6.63;5.50;;;10.60;99.90;;;;;;4978879;28;20026;-68